Chatham Islands, New Zealand
Current Conditions -  °F | °C
As of 11:30 PM on Saturday 20 Dec 2014 (Local Time) from NZWN Reporting Station
Rain Showers Rain Showers  
Wind Chill: 63°   Ceiling: 1500
Heat Index: 63°   Visibility: 2.3mi
Dew Point: 61°   Wind: 7mph
Humidity: 94%   Direction: 340°NNW
Pressure: 29.77"   Gusts: NA
Location:  44°S, 176.38°W
Report Text: NZWN 201130Z AUTO 34006KT 3700 -SHRA SCT009/// BKN015///OVC049/// 17/16 Q1008 TEMPO FM201200 4000 RA BKN008
Loading
Personal Weather Stations






























Interactive Weather Map New forecast layout! Learn more

10-Day Weather Forecast

Advertisements
Track Severe Weather on mobile